San Diego, CA (92106)

10:22 PM PDT on July 23, 2017 (GMT -0700)
Point Loma | | Change Station
Active Advisory: Beach Hazard Statement

Elev 39 ft 32.73 °N, 117.24 °W | Updated 17 minutes ago

Mostly Cloudy
Mostly Cloudy
69.8 °F
Feels Like 69.8 °F
N
1.8
Wind Variable Wind from South
Gusts 3.8 mph

Today
High -- | Low -- °F
--% Chance of Precip.
Yesterday
High -- | Low -- °F
Precip. -- in
Pressure 29.93 in
Visibility 10.0 miles
Clouds Mostly Cloudy 1700 ft
Mostly Cloudy 18000 ft
Dew Point 62 °F
Humidity 81%
Rainfall Not available.
Snow Depth Not available.
5:57 AM 7:53 PM
New Moon, 1% visible
SPECI KSAN 240513Z VRB03KT 10SM BKN017 BKN180 21/17 A2993 RMK AO2 T02110167 $
Pressure 29.93 in
Visibility 10.0 miles
Clouds Mostly Cloudy 1700 ft
Mostly Cloudy 18000 ft
Dew Point 62 °F
Humidity 81%
Rainfall Not available.
Snow Depth Not available.
5:57 AM 7:53 PM
New Moon, 1% visible
SPECI KSAN 240513Z VRB03KT 10SM BKN017 BKN180 21/17 A2993 RMK AO2 T02110167 $

Get Your Daily Forecast Email!

Thanks for signing up!

Be on the lookout for a verification email in your inbox.

You'll start receiving severe weather alerts in your inbox..

×

10-Day Weather Forecast

Almanac

Astronomy

Jul. 23, 2017 Rise Set
Actual Time
Civil Twilight
Nautical Twilight
Astronomical Twilight
Moon
Length of Visible Light
Length of Day
Tomorrow will be .
, % of the Moon is Illuminated

Today's Extremes

State Highs State Lows

Community

WunderPhotos

Category 6

Welcome to Category 6. This is the collective home for Weather Underground's featured writeups by Dr. Jeff Masters (right), Bob Henson (left), Chris Burt, and other regular contributors.

Nearby

Air Quality

  Air Quality AQ Index Pollutant
Not available.

Snow Depth

Station Depth Elevation

Earthquake Activity

City Distance Mag. Time & Date
Minimum magnitude displayed is 2.5.

Coastal Water Temperatures

Place Temperature

Stations

Nearby Weather Stations

Station Location Temp. Windchill Dew Point Humidity Wind Precip. Elev Updated Type
                   

Watches & Warnings

Beach Hazard Statement
Issued: 12:20 PM PDT Jul. 23, 2017 – National Weather Service

... Beach hazards statement remains in effect until midnight PDT
tonight...

* tide... 6.9 to 7.0 feet around 945 PM.

* Timing... minor tidal overflow possible an hour before and after
the time of highest tide.

* Impacts... minor flooding of low-lying coastal areas and beach
adjacent roads and parking lots. Possible impacted locations
include... but are not limited to... Sunset Beach... Oceanside...
Cardiff and La Jolla shores.

Precautionary/preparedness actions...

A beach hazards statement for minor tidal overflow means that
high astronomical tides possibly in combination with above normal
surf will likely produce minor flooding of low-lying areas along
the beach such as beach parking lots. Coastal officials should
take the necessary precautionary measures to safeguard their
beaches.



Albright